ELY weather

Ely Airport Yelland Field
Ely, Nevada, United States

Public forecast

Using degrees Fahrenheit for public forecast. Weather courtesy of forecast.io.

Current aviation weather report (METAR) for Ely Airport Yelland Field

Retrieved 2019/11/17 15:53 UTC (32 minutes ago):

KELY 171553Z AUTO 19010KT 10SM CLR M02/M09 A3040 RMK AO2 SLP313 T10221089

Aviation forecast (TAF) for Ely Airport Yelland Field

Retrieved 2019/11/17 12:33 UTC (4 hours ago):

TAF KELY 171130Z 1712/1812 17011KT P6SM FEW200 FM172000 33006KT P6SM SCT200 FM180200 17009KT P6SM SCT200